createdAt,value
2022-09-07T00:00:19.702Z,100217.31
2022-09-07T00:05:24.435Z,100206.00
2022-09-07T00:10:31.115Z,100216.78
2022-09-07T00:15:36.678Z,100209.00
2022-09-07T00:20:43.985Z,100214.19
2022-09-07T00:25:53.891Z,100197.03
2022-09-07T00:30:58.531Z,100207.34
2022-09-07T00:36:04.696Z,100197.56
2022-09-07T00:41:12.689Z,100195.28
2022-09-07T00:46:20.624Z,100194.44
2022-09-07T00:51:31.628Z,100189.66
2022-09-07T00:56:40.440Z,100186.81
2022-09-07T01:01:46.087Z,100180.25
2022-09-07T01:06:52.724Z,100178.31
2022-09-07T01:12:01.433Z,100183.97
2022-09-07T01:17:13.968Z,100192.88
2022-09-07T01:22:46.708Z,100197.84
2022-09-07T01:28:23.388Z,100197.66
2022-09-07T01:33:53.658Z,100204.97
2022-09-07T01:39:03.622Z,100199.53
2022-09-07T01:44:14.118Z,100208.75
2022-09-07T01:49:22.175Z,100192.88
2022-09-07T01:54:31.387Z,100185.03
2022-09-07T01:59:40.410Z,100173.09
2022-09-07T02:04:49.940Z,100166.69
2022-09-07T02:10:00.834Z,100178.38
2022-09-07T02:15:16.009Z,100167.44
2022-09-07T02:20:25.266Z,100163.63
2022-09-07T02:25:36.397Z,100168.09
2022-09-07T02:30:46.916Z,100163.78
2022-09-07T02:36:01.182Z,100165.09
2022-09-07T02:41:06.159Z,100171.38
2022-09-07T02:46:28.390Z,100171.31
2022-09-07T02:51:40.953Z,100168.16
2022-09-07T02:56:56.342Z,100165.31
2022-09-07T03:02:06.198Z,100165.63
2022-09-07T03:07:14.327Z,100163.63
2022-09-07T03:12:18.587Z,100162.97
2022-09-07T03:17:25.587Z,100155.47
2022-09-07T03:22:33.209Z,100146.91
2022-09-07T03:27:38.483Z,100142.16
2022-09-07T03:32:49.968Z,100146.44
2022-09-07T03:37:57.557Z,100156.41
2022-09-07T03:43:01.818Z,100153.03
2022-09-07T03:48:07.658Z,100160.59
2022-09-07T03:53:11.191Z,100155.41
2022-09-07T03:58:15.037Z,100150.00
2022-09-07T04:03:20.397Z,100144.97
2022-09-07T04:08:29.283Z,100150.47
2022-09-07T04:13:35.308Z,100140.44
2022-09-07T04:18:42.279Z,100136.59
2022-09-07T04:23:47.971Z,100135.13
2022-09-07T04:28:55.144Z,100123.38
2022-09-07T04:34:03.357Z,100113.78
2022-09-07T04:39:07.603Z,100110.94
2022-09-07T04:44:16.597Z,100106.47
2022-09-07T04:49:23.148Z,100106.28
2022-09-07T04:54:26.602Z,100104.09
2022-09-07T04:59:30.899Z,100098.25
2022-09-07T05:04:41.171Z,100094.78
2022-09-07T05:09:44.420Z,100101.34
2022-09-07T05:14:48.010Z,100095.97
2022-09-07T05:19:55.181Z,100094.44
2022-09-07T05:24:58.438Z,100089.56
2022-09-07T05:30:03.781Z,100098.44
2022-09-07T05:35:12.269Z,100082.16
2022-09-07T05:40:15.812Z,100077.19
2022-09-07T05:45:19.601Z,100083.22
2022-09-07T05:50:24.790Z,100087.66
2022-09-07T05:55:30.339Z,100084.19
2022-09-07T06:00:34.444Z,100091.53
2022-09-07T06:05:40.280Z,100095.63
2022-09-07T06:10:44.422Z,100096.16
2022-09-07T06:15:49.143Z,100100.44
2022-09-07T06:20:57.418Z,100093.38
2022-09-07T06:26:02.212Z,100071.47
2022-09-07T06:31:08.577Z,100083.19
2022-09-07T06:36:17.090Z,100073.47
2022-09-07T06:52:11.491Z,100067.09
2022-09-07T06:57:15.611Z,100069.47
2022-09-07T07:02:18.940Z,100060.41
2022-09-07T07:07:25.934Z,100062.44
2022-09-07T07:17:42.186Z,100054.28
2022-09-07T07:22:51.451Z,100074.75
2022-09-07T07:27:56.019Z,100080.72
2022-09-07T07:33:02.202Z,100066.06
2022-09-07T07:43:36.569Z,100069.56
2022-09-07T07:48:42.866Z,100069.47
2022-09-07T07:53:48.691Z,100075.03
2022-09-07T07:58:53.760Z,100071.69
2022-09-07T08:03:58.529Z,100078.44
2022-09-07T08:09:03.266Z,100075.25
2022-09-07T08:14:09.208Z,100071.03
2022-09-07T08:19:19.715Z,100074.78
2022-09-07T08:24:25.061Z,100073.00
2022-09-07T08:29:33.494Z,100065.69
2022-09-07T08:34:43.250Z,100075.28
2022-09-07T08:39:48.430Z,100069.25
2022-09-07T08:44:57.360Z,100062.94
2022-09-07T08:50:07.107Z,100061.53
2022-09-07T08:55:17.662Z,100064.09
2022-09-07T09:00:25.319Z,100066.88
2022-09-07T09:05:38.023Z,100067.94
2022-09-07T09:10:52.497Z,100070.28
2022-09-07T09:16:05.769Z,100066.91
2022-09-07T09:21:17.457Z,100073.78
2022-09-07T09:26:26.251Z,100079.50
2022-09-07T09:31:34.614Z,100082.03
2022-09-07T09:36:44.264Z,100086.38
2022-09-07T09:41:50.223Z,100086.25
2022-09-07T09:52:33.639Z,100080.53
2022-09-07T10:09:00.452Z,100064.81
2022-09-07T10:14:05.638Z,100066.53
2022-09-07T10:19:26.677Z,100061.13
2022-09-07T10:24:36.902Z,100047.19
2022-09-07T10:29:55.986Z,100049.16
2022-09-07T10:35:12.602Z,100053.47
2022-09-07T10:40:30.362Z,100046.06
2022-09-07T10:45:46.574Z,100049.44
2022-09-07T10:50:55.142Z,100044.94
2022-09-07T10:56:09.096Z,100042.56
2022-09-07T11:01:22.619Z,100045.75
2022-09-07T11:06:34.820Z,100039.00
2022-09-07T11:17:15.880Z,100038.47
2022-09-07T11:22:32.036Z,100032.63
2022-09-07T11:27:41.463Z,100030.91
2022-09-07T11:32:55.884Z,100028.72
2022-09-07T11:38:06.805Z,100013.84
2022-09-07T11:43:17.894Z,100012.31
2022-09-07T11:48:30.361Z,100004.16
2022-09-07T11:53:37.429Z,100012.81
2022-09-07T11:59:21.019Z,99994.78
2022-09-07T12:04:51.716Z,99992.38
2022-09-07T12:10:13.143Z,99982.94
2022-09-07T12:15:29.033Z,99988.59
2022-09-07T12:20:43.323Z,99978.72
2022-09-07T12:25:48.826Z,99961.81
2022-09-07T12:31:00.865Z,99953.78
2022-09-07T12:36:46.389Z,99950.56
2022-09-07T12:47:31.674Z,99939.53
2022-09-07T12:53:23.207Z,99935.53
2022-09-07T12:58:42.102Z,99926.63
2022-09-07T13:04:14.095Z,99917.75
2022-09-07T13:09:40.111Z,99922.31
2022-09-07T13:14:44.242Z,99918.47
2022-09-07T13:20:23.782Z,99910.66
2022-09-07T13:25:50.320Z,99911.47
2022-09-07T13:31:08.390Z,99904.69
2022-09-07T13:36:28.507Z,99906.56
2022-09-07T13:41:40.872Z,99909.44
2022-09-07T13:46:55.941Z,99908.09
2022-09-07T13:52:08.724Z,99891.47
2022-09-07T13:57:24.814Z,99896.31
2022-09-07T14:02:30.664Z,99893.78
2022-09-07T14:07:35.446Z,99900.47
2022-09-07T14:12:50.010Z,99901.28
2022-09-07T14:18:05.248Z,99894.22
2022-09-07T14:23:14.437Z,99889.34
2022-09-07T14:28:39.982Z,99885.38
2022-09-07T14:33:53.046Z,99898.28
2022-09-07T14:39:06.775Z,99887.00
2022-09-07T14:44:32.673Z,99881.94
2022-09-07T14:49:38.195Z,99874.88
2022-09-07T14:54:41.448Z,99873.81
2022-09-07T14:59:48.506Z,99870.72
2022-09-07T15:05:18.079Z,99859.38
2022-09-07T15:11:32.499Z,99856.59
2022-09-07T15:16:13.229Z,99856.25
2022-09-07T15:21:20.522Z,99857.84
2022-09-07T15:32:03.325Z,99850.94
2022-09-07T15:47:58.951Z,99844.06
2022-09-07T15:53:03.346Z,99842.88
2022-09-07T15:58:11.687Z,99844.13
2022-09-07T16:03:17.058Z,99831.41
2022-09-07T16:08:32.705Z,99820.16
2022-09-07T16:13:36.402Z,99813.50
2022-09-07T16:18:46.968Z,99799.28
2022-09-07T16:23:52.775Z,99803.63
2022-09-07T16:28:56.216Z,99813.91
2022-09-07T16:34:03.014Z,99820.66
2022-09-07T16:39:08.144Z,99828.97
2022-09-07T16:44:14.083Z,99828.50
2022-09-07T16:49:19.731Z,99817.75
2022-09-07T16:54:23.658Z,99821.47
2022-09-07T16:59:27.480Z,99814.34
2022-09-07T17:04:33.548Z,99819.72
2022-09-07T17:09:38.202Z,99821.78
2022-09-07T17:14:41.689Z,99821.72
2022-09-07T17:19:46.443Z,99823.50
2022-09-07T17:24:50.972Z,99827.44
2022-09-07T17:29:54.563Z,99828.94
2022-09-07T17:35:00.880Z,99819.91
2022-09-07T17:40:06.880Z,99814.91
2022-09-07T17:45:12.526Z,99806.88
2022-09-07T17:50:19.102Z,99800.81
2022-09-07T17:55:23.333Z,99806.50
2022-09-07T18:00:27.709Z,99816.72
2022-09-07T18:05:34.980Z,99829.44
2022-09-07T18:16:03.161Z,99848.03
2022-09-07T18:21:16.042Z,99850.31
2022-09-07T18:26:21.888Z,99862.09
2022-09-07T18:31:28.442Z,99870.75
2022-09-07T18:36:34.837Z,99859.75
2022-09-07T18:41:41.006Z,99876.34
2022-09-07T18:46:45.528Z,99901.31
2022-09-07T18:57:15.454Z,99909.00
2022-09-07T19:02:23.410Z,99902.13
2022-09-07T19:07:30.154Z,99903.13
2022-09-07T19:12:34.741Z,99905.84
2022-09-07T19:17:40.147Z,99916.38
2022-09-07T19:22:48.236Z,99911.66
2022-09-07T19:27:54.533Z,99922.78
2022-09-07T19:33:04.199Z,99921.91
2022-09-07T19:38:12.014Z,99935.88
2022-09-07T19:43:15.686Z,99931.94
2022-09-07T19:48:21.966Z,99921.00
2022-09-07T19:53:31.797Z,99909.78
2022-09-07T19:58:37.295Z,99913.97
2022-09-07T20:03:44.183Z,99914.31
2022-09-07T20:08:49.310Z,99900.47
2022-09-07T20:13:57.385Z,99891.88
2022-09-07T20:19:01.158Z,99874.63
2022-09-07T20:24:07.388Z,99879.59
2022-09-07T20:29:29.227Z,99878.78
2022-09-07T20:34:34.573Z,99874.84
2022-09-07T20:39:40.180Z,99859.06
2022-09-07T20:44:44.005Z,99844.97
2022-09-07T20:49:52.306Z,99845.84
2022-09-07T20:54:57.349Z,99836.84
2022-09-07T21:00:03.744Z,99840.16
2022-09-07T21:05:14.939Z,99832.59
2022-09-07T21:10:25.714Z,99835.09
2022-09-07T21:15:31.891Z,99830.41
2022-09-07T21:20:37.494Z,99831.44
2022-09-07T21:25:48.667Z,99823.03
2022-09-07T21:31:01.271Z,99825.72
2022-09-07T21:36:07.265Z,99821.06
2022-09-07T21:41:17.329Z,99820.41
2022-09-07T21:46:31.174Z,99819.03
2022-09-07T21:51:36.278Z,99822.91
2022-09-07T21:56:46.644Z,99814.50
2022-09-07T22:01:56.325Z,99816.56
2022-09-07T22:07:00.815Z,99824.19
2022-09-07T22:12:10.127Z,99833.25
2022-09-07T22:17:16.961Z,99839.84
2022-09-07T22:22:21.839Z,99832.50
2022-09-07T22:27:27.138Z,99814.13
2022-09-07T22:32:30.684Z,99810.88
2022-09-07T22:37:36.720Z,99807.22
2022-09-07T22:42:41.577Z,99804.97
2022-09-07T22:47:45.060Z,99811.75
2022-09-07T22:52:49.056Z,99799.66
2022-09-07T22:57:55.756Z,99810.75
2022-09-07T23:02:58.817Z,99802.97
2022-09-07T23:08:04.854Z,99799.09
2022-09-07T23:13:15.010Z,99784.75
2022-09-07T23:18:22.746Z,99784.75
2022-09-07T23:23:28.592Z,99789.69
2022-09-07T23:28:33.648Z,99780.09
2022-09-07T23:33:38.027Z,99765.16
2022-09-07T23:38:41.481Z,99758.59
2022-09-07T23:43:48.435Z,99771.28
2022-09-07T23:48:52.409Z,99785.63
2022-09-07T23:53:56.958Z,99778.31
2022-09-07T23:59:01.804Z,99786.28
